Time;durP1;ratioP1;P1;durP2;ratioP2;P2;SDS_P1;SDS_P2;PMS_P1;PMS_P2;Temp;Humidity;BMP_temperature;BMP_pressure;BME280_temperature;BME280_humidity;BME280_pressure;Samples;Min_cycle;Max_cycle;Signal;HPM_P1;HPM_P2
2024/02/01 00:00:59;;;;;;;51.70;27.75;;;4.30;99.90;;;;;;6209309;23;20024;-77
2024/02/01 00:03:25;;;;;;;52.63;27.67;;;4.30;99.90;;;;;;6209389;23;20016;-77
2024/02/01 00:05:51;;;;;;;54.43;28.37;;;4.40;99.90;;;;;;6209217;23;20079;-77
2024/02/01 00:08:16;;;;;;;67.33;28.17;;;4.40;99.90;;;;;;6208883;23;20009;-77
2024/02/01 00:10:42;;;;;;;49.37;27.63;;;4.40;99.90;;;;;;6208946;23;20012;-76
2024/02/01 00:13:09;;;;;;;59.17;28.70;;;4.30;99.90;;;;;;6209089;23;20043;-77
2024/02/01 00:15:35;;;;;;;62.55;29.05;;;4.30;99.90;;;;;;6209099;23;20711;-78
2024/02/01 00:18:00;;;;;;;53.07;27.37;;;4.40;99.90;;;;;;6208837;23;20001;-77
2024/02/01 00:20:26;;;;;;;52.70;27.07;;;4.50;99.90;;;;;;6209163;23;20381;-77
2024/02/01 00:22:51;;;;;;;50.47;26.30;;;4.60;99.90;;;;;;6209271;23;20012;-76
2024/02/01 00:25:17;;;;;;;52.30;26.07;;;4.70;99.90;;;;;;6210217;23;20004;-76
2024/02/01 00:27:43;;;;;;;51.00;24.60;;;4.60;99.90;;;;;;6209707;23;19996;-77
2024/02/01 00:30:09;;;;;;;52.93;26.53;;;4.60;99.90;;;;;;6210705;23;20016;-76
2024/02/01 00:32:35;;;;;;;;;;;4.60;99.90;;;;;;6211722;23;20012;-76
2024/02/01 00:35:00;;;;;;;48.97;24.20;;;4.70;99.90;;;;;;6209366;23;19899;-75
2024/02/01 00:37:26;;;;;;;58.20;27.00;;;4.70;99.90;;;;;;6208930;23;20036;-77
2024/02/01 00:39:52;;;;;;;58.07;26.53;;;4.70;99.90;;;;;;6208236;23;20058;-76
2024/02/01 00:42:17;;;;;;;56.78;27.23;;;4.70;99.90;;;;;;6208597;23;20000;-76
2024/02/01 00:44:43;;;;;;;56.43;27.03;;;4.70;99.90;;;;;;6207647;23;20008;-76
2024/02/01 00:47:09;;;;;;;54.50;27.60;;;4.70;99.90;;;;;;6208788;23;20001;-77
2024/02/01 00:49:34;;;;;;;61.10;28.77;;;4.60;99.90;;;;;;6208775;23;20012;-74
2024/02/01 00:52:01;;;;;;;52.03;27.60;;;4.70;99.90;;;;;;6208579;23;20103;-77
2024/02/01 00:54:27;;;;;;;;;;;4.70;99.90;;;;;;6209307;23;20000;-76
2024/02/01 00:56:52;;;;;;;55.10;26.35;;;4.70;99.90;;;;;;6208633;23;19930;-71
2024/02/01 00:59:19;;;;;;;59.25;27.30;;;4.70;99.90;;;;;;6208245;23;20017;-73
2024/02/01 01:01:44;;;;;;;;;;;4.70;99.90;;;;;;6208727;23;20441;-72
2024/02/01 01:04:10;;;;;;;51.70;25.75;;;4.60;99.90;;;;;;6208462;23;19900;-73
2024/02/01 01:06:36;;;;;;;47.20;25.40;;;4.50;99.90;;;;;;6209001;23;20005;-71
2024/02/01 01:09:01;;;;;;;54.43;25.97;;;4.40;99.90;;;;;;6208067;23;20059;-72
2024/02/01 01:11:27;;;;;;;55.87;26.57;;;4.40;99.90;;;;;;6208146;23;20385;-72
2024/02/01 01:13:53;;;;;;;53.80;27.93;;;4.30;99.90;;;;;;6208489;23;20075;-72
2024/02/01 01:16:18;;;;;;;53.80;26.17;;;4.30;99.90;;;;;;6208409;23;20012;-71
2024/02/01 01:18:44;;;;;;;55.23;28.97;;;4.50;99.90;;;;;;6207922;23;20503;-76
2024/02/01 01:21:10;;;;;;;47.70;26.80;;;4.70;99.90;;;;;;6180881;23;20009;-76
2024/02/01 01:23:35;;;;;;;51.47;27.27;;;4.80;99.90;;;;;;6208170;23;20087;-77
2024/02/01 01:26:01;;;;;;;56.37;26.77;;;4.90;99.90;;;;;;6207947;23;20016;-76
2024/02/01 01:28:26;;;;;;;49.97;25.77;;;5.00;99.90;;;;;;6207888;23;20441;-74
2024/02/01 01:30:52;;;;;;;47.83;26.00;;;5.00;99.90;;;;;;6208537;23;20095;-75
2024/02/01 01:33:18;;;;;;;56.83;26.17;;;5.00;99.90;;;;;;6208363;23;20158;-75
2024/02/01 01:35:43;;;;;;;60.40;27.57;;;5.00;99.90;;;;;;6207641;23;20015;-76
2024/02/01 01:38:09;;;;;;;54.43;28.23;;;5.10;99.90;;;;;;6208728;23;20219;-74
2024/02/01 01:40:34;;;;;;;76.23;28.97;;;5.10;99.90;;;;;;6208006;23;20456;-75
2024/02/01 01:43:00;;;;;;;56.53;26.77;;;5.20;99.90;;;;;;6208374;23;20036;-75
2024/02/01 01:45:26;;;;;;;51.87;27.50;;;5.10;99.90;;;;;;6208256;23;20000;-75
2024/02/01 01:47:52;;;;;;;60.33;27.53;;;5.10;99.90;;;;;;6181906;23;20348;-76
2024/02/01 01:50:18;;;;;;;50.47;27.13;;;5.10;99.90;;;;;;6207862;23;20119;-75
2024/02/01 01:52:47;;;;;;;51.42;25.63;;;5.10;99.90;;;;;;6208253;23;20007;-77
2024/02/01 01:55:13;;;;;;;54.85;27.20;;;5.10;99.90;;;;;;6208067;23;20514;-76
2024/02/01 01:57:39;;;;;;;46.67;24.83;;;5.10;99.90;;;;;;6208093;23;20005;-75
2024/02/01 02:00:08;;;;;;;57.10;28.38;;;5.20;99.90;;;;;;6208086;23;20107;-76
2024/02/01 02:02:35;;;;;;;52.92;28.33;;;5.20;99.90;;;;;;6207643;23;20032;-77
2024/02/01 02:05:01;;;;;;;51.30;27.30;;;5.20;99.90;;;;;;6208392;23;20382;-76
2024/02/01 02:07:27;;;;;;;55.58;27.80;;;5.30;99.90;;;;;;6181145;23;20004;-76
2024/02/01 02:09:54;;;;;;;55.67;27.55;;;5.40;99.90;;;;;;6207187;23;20095;-75
2024/02/01 02:12:20;;;;;;;54.60;28.52;;;5.50;99.90;;;;;;6209533;23;20330;-78
2024/02/01 02:14:59;;;;;;;55.63;26.53;;;5.50;99.90;;;;;;6211002;23;20020;-76
2024/02/01 02:17:28;;;;;;;55.00;27.92;;;5.50;99.90;;;;;;6209497;23;20039;-74
2024/02/01 02:19:54;;;;;;;47.88;26.38;;;5.50;99.90;;;;;;6208727;23;19997;-77
2024/02/01 02:22:25;;;;;;;51.03;28.17;;;5.50;99.90;;;;;;6208120;23;20012;-78
2024/02/01 02:24:51;;;;;;;58.92;29.38;;;5.50;99.90;;;;;;6208431;23;20167;-77
2024/02/01 02:27:20;;;;;;;48.72;27.38;;;5.40;99.90;;;;;;6208343;23;20453;-78
2024/02/01 02:29:47;;;;;;;54.78;27.75;;;5.40;99.90;;;;;;6208489;23;20344;-78
2024/02/01 02:32:12;;;;;;;49.60;26.33;;;5.40;99.90;;;;;;6208840;23;20015;-78
2024/02/01 02:34:38;;;;;;;52.78;26.50;;;5.50;99.90;;;;;;6209363;23;20005;-77
2024/02/01 02:37:04;;;;;;;55.37;27.47;;;5.40;99.90;;;;;;6208636;23;20012;-75
2024/02/01 02:39:29;;;;;;;61.20;27.03;;;5.50;99.90;;;;;;6208394;23;20460;-73
2024/02/01 02:41:55;;;;;;;57.70;27.60;;;5.50;99.90;;;;;;6208334;23;20009;-73
2024/02/01 02:44:20;;;;;;;52.03;27.87;;;5.50;99.90;;;;;;6208492;23;20007;-74
2024/02/01 02:46:46;;;;;;;62.43;28.83;;;5.60;99.90;;;;;;6208481;23;20448;-74
2024/02/01 02:49:12;;;;;;;59.42;30.35;;;5.60;99.90;;;;;;6208544;23;20005;-73
2024/02/01 02:51:39;;;;;;;64.55;31.55;;;5.70;99.90;;;;;;6208678;23;20326;-77
2024/02/01 02:54:05;;;;;;;55.50;29.50;;;5.70;99.90;;;;;;6208823;23;20004;-73
2024/02/01 02:56:31;;;;;;;52.17;29.05;;;5.70;99.90;;;;;;6208141;23;20009;-75
2024/02/01 02:58:56;;;;;;;53.78;28.60;;;5.70;99.90;;;;;;6208166;23;20341;-71
2024/02/01 03:01:22;;;;;;;51.10;28.23;;;5.80;99.90;;;;;;6208156;23;20008;-74
2024/02/01 03:03:48;;;;;;;48.17;25.63;;;5.80;99.90;;;;;;6207962;23;20236;-71
2024/02/01 03:06:13;;;;;;;57.40;29.03;;;5.80;99.90;;;;;;6207901;23;20004;-72
2024/02/01 03:08:40;;;;;;;54.38;27.95;;;5.90;99.90;;;;;;6208009;23;20016;-74
2024/02/01 03:11:12;;;;;;;49.08;27.85;;;5.80;99.90;;;;;;6208128;23;20028;-72
2024/02/01 03:13:45;;;;;;;56.10;28.17;;;5.80;99.90;;;;;;6206636;23;20000;-74
2024/02/01 03:16:18;;;;;;;52.97;27.30;;;5.70;99.90;;;;;;6208328;23;20006;-73
2024/02/01 03:18:44;;;;;;;53.38;27.33;;;5.70;99.90;;;;;;6208119;23;20011;-73
2024/02/01 03:21:14;;;;;;;49.28;27.00;;;5.70;99.90;;;;;;6208092;23;20012;-74
2024/02/01 03:23:41;;;;;;;57.53;28.45;;;5.70;99.90;;;;;;6206933;23;20015;-73
2024/02/01 03:26:07;;;;;;;49.90;26.63;;;5.80;99.90;;;;;;6207417;23;20453;-75
2024/02/01 03:28:32;;;;;;;55.93;26.93;;;5.80;99.90;;;;;;6207386;23;20001;-75
2024/02/01 03:30:58;;;;;;;54.70;27.13;;;5.90;99.90;;;;;;6207986;23;20087;-75
2024/02/01 03:33:24;;;;;;;55.78;28.27;;;5.80;99.90;;;;;;6208629;23;20426;-77
2024/02/01 03:35:51;;;;;;;54.08;26.38;;;5.80;99.90;;;;;;6208922;23;20013;-76
2024/02/01 03:38:17;;;;;;;54.22;26.55;;;5.80;99.90;;;;;;6210819;23;20084;-76
2024/02/01 03:40:42;;;;;;;49.67;25.30;;;5.80;99.90;;;;;;6209780;23;20032;-78
2024/02/01 03:43:11;;;;;;;54.20;26.33;;;5.80;99.90;;;;;;6210067;23;20397;-78
2024/02/01 03:45:37;;;;;;;54.65;26.42;;;5.80;99.90;;;;;;6183377;23;20441;-77
2024/02/01 03:48:03;;;;;;;51.92;26.67;;;5.80;99.90;;;;;;6209500;23;20004;-78
2024/02/01 03:50:28;;;;;;;45.05;23.65;;;5.70;99.90;;;;;;6209344;23;20051;-78
2024/02/01 03:52:54;;;;;;;44.07;25.60;;;5.80;99.90;;;;;;6210552;23;20000;-78
2024/02/01 03:55:20;;;;;;;46.93;25.17;;;5.70;99.90;;;;;;6211119;23;20008;-78
2024/02/01 03:57:47;;;;;;;53.25;26.80;;;5.80;99.90;;;;;;6210073;23;20480;-78
2024/02/01 04:00:28;;;;;;;50.13;24.67;;;5.80;99.90;;;;;;6208977;23;20016;-76
2024/02/01 04:03:04;;;;;;;50.10;25.05;;;5.80;99.90;;;;;;6209273;23;20091;-76
2024/02/01 04:05:37;;;;;;;45.30;24.55;;;5.80;99.90;;;;;;6209516;23;20059;-76
2024/02/01 04:08:07;;;;;;;45.25;24.80;;;5.80;99.90;;;;;;6209116;23;20024;-75
2024/02/01 04:10:34;;;;;;;46.35;24.65;;;5.70;99.90;;;;;;6182942;23;20013;-75
2024/02/01 04:13:05;;;;;;;46.28;26.20;;;5.80;99.90;;;;;;6208945;23;20059;-78
2024/02/01 04:15:31;;;;;;;50.30;26.85;;;5.80;99.90;;;;;;6208705;23;20009;-78
2024/02/01 04:17:57;;;;;;;56.17;26.45;;;5.90;99.90;;;;;;6209062;23;20446;-77
2024/02/01 04:20:23;;;;;;;52.65;26.23;;;5.80;99.90;;;;;;6208787;23;20047;-76
2024/02/01 04:22:53;;;;;;;47.97;25.05;;;5.70;99.90;;;;;;6209582;23;20467;-76
2024/02/01 04:25:20;;;;;;;52.22;26.95;;;5.70;99.90;;;;;;6210183;23;20008;-73
2024/02/01 04:27:49;;;;;;;48.58;26.75;;;5.80;99.90;;;;;;6209261;23;20393;-76
2024/02/01 04:30:17;;;;;;;42.10;24.73;;;5.90;99.90;;;;;;6209489;23;20024;-73
2024/02/01 04:32:43;;;;;;;49.03;25.52;;;5.90;99.90;;;;;;6209289;23;20012;-78
2024/02/01 04:35:08;;;;;;;52.40;25.10;;;5.90;99.90;;;;;;6208918;23;20074;-77
2024/02/01 04:37:34;;;;;;;43.30;26.63;;;6.00;99.90;;;;;;6208321;23;20001;-78
2024/02/01 04:40:00;;;;;;;48.37;26.13;;;6.00;99.90;;;;;;6208790;23;20083;-78
2024/02/01 04:42:30;;;;;;;46.05;24.75;;;6.00;99.90;;;;;;6209515;23;20005;-77
2024/02/01 04:44:57;;;;;;;46.55;26.55;;;6.00;99.90;;;;;;6209624;23;20012;-75
2024/02/01 04:47:25;;;;;;;44.92;24.98;;;6.00;99.90;;;;;;6208769;23;20515;-75
2024/02/01 04:49:51;;;;;;;52.33;26.10;;;6.00;99.90;;;;;;6208727;23;20008;-76
2024/02/01 04:52:17;;;;;;;48.05;26.00;;;6.00;99.90;;;;;;6209377;23;20111;-76
2024/02/01 04:54:42;;;;;;;54.47;26.43;;;6.10;99.90;;;;;;6209006;23;20047;-77
2024/02/01 04:57:13;;;;;;;56.90;27.37;;;6.00;99.90;;;;;;6209477;23;20051;-76
2024/02/01 04:59:44;;;;;;;52.90;27.48;;;6.10;99.90;;;;;;6209303;23;20012;-74
2024/02/01 05:02:14;;;;;;;49.38;27.88;;;6.10;99.90;;;;;;6182637;23;20019;-73
2024/02/01 05:04:40;;;;;;;53.38;26.88;;;6.10;99.90;;;;;;6209291;23;20009;-77
2024/02/01 05:07:06;;;;;;;51.50;27.48;;;6.10;99.90;;;;;;6209733;23;20020;-79
2024/02/01 05:09:39;;;;;;;58.45;28.48;;;6.10;99.90;;;;;;6209391;23;20024;-77
2024/02/01 05:12:09;;;;;;;56.00;28.77;;;6.10;99.90;;;;;;6207029;23;20535;-77
2024/02/01 05:14:36;;;;;;;51.13;28.33;;;6.10;99.90;;;;;;6207268;23;20012;-74
2024/02/01 05:17:02;;;;;;;48.78;27.00;;;6.10;99.90;;;;;;6207799;23;20019;-73
2024/02/01 05:19:28;;;;;;;52.65;27.95;;;6.10;99.90;;;;;;6207176;23;20321;-74
2024/02/01 05:21:54;;;;;;;61.60;28.85;;;6.20;99.90;;;;;;6207743;23;20031;-74
2024/02/01 05:24:23;;;;;;;54.42;29.88;;;6.20;99.90;;;;;;6207875;23;20600;-77
2024/02/01 05:26:51;;;;;;;52.50;27.30;;;6.20;99.90;;;;;;6207688;23;20028;-77
2024/02/01 05:29:25;;;;;;;56.45;27.90;;;6.20;99.90;;;;;;6207543;23;20127;-77
2024/02/01 05:31:55;;;;;;;60.90;28.65;;;6.30;99.90;;;;;;6208055;23;20020;-76
2024/02/01 05:34:22;;;;;;;60.33;29.70;;;6.20;99.90;;;;;;6209421;23;20026;-77
2024/02/01 05:36:51;;;;;;;55.70;30.55;;;6.20;99.90;;;;;;6209916;23;20074;-78
2024/02/01 05:39:30;;;;;;;64.10;29.77;;;6.20;99.90;;;;;;6207614;23;20087;-78
2024/02/01 05:42:00;;;;;;;57.40;29.13;;;6.20;99.90;;;;;;6207290;23;20008;-78
2024/02/01 05:44:27;;;;;;;55.83;30.00;;;6.20;99.90;;;;;;6207298;23;20059;-78
2024/02/01 05:46:55;;;;;;;57.28;29.52;;;6.30;99.90;;;;;;6207012;23;20012;-75
2024/02/01 05:49:22;;;;;;;56.38;31.13;;;6.30;99.90;;;;;;6207980;23;20064;-77
2024/02/01 05:51:50;;;;;;;54.47;29.05;;;6.30;99.90;;;;;;6207143;23;20424;-77
2024/02/01 05:54:16;;;;;;;59.42;29.60;;;6.30;99.90;;;;;;6206593;23;20011;-75
2024/02/01 05:56:45;;;;;;;54.25;29.23;;;6.30;99.90;;;;;;6207059;23;20085;-77
2024/02/01 05:59:12;;;;;;;58.58;27.95;;;6.30;99.90;;;;;;6206650;23;20020;-78
2024/02/01 06:01:38;;;;;;;50.15;27.52;;;6.30;99.90;;;;;;6205720;23;20058;-77
2024/02/01 06:04:04;;;;;;;50.72;26.88;;;6.20;99.90;;;;;;6204109;23;20126;-77
2024/02/01 06:06:30;;;;;;;55.47;28.85;;;6.20;99.90;;;;;;6205868;23;20107;-75
2024/02/01 06:08:57;;;;;;;51.22;26.92;;;6.20;99.90;;;;;;6206601;23;20008;-75
2024/02/01 06:11:23;;;;;;;49.65;26.27;;;6.20;99.90;;;;;;6206251;23;20694;-75
2024/02/01 06:13:48;;;;;;;53.88;28.08;;;6.10;99.90;;;;;;6206657;23;20004;-74
2024/02/01 06:16:14;;;;;;;52.63;26.27;;;6.10;99.90;;;;;;6205840;23;20008;-76
2024/02/01 06:18:40;;;;;;;62.17;28.05;;;6.10;99.90;;;;;;6206697;23;20012;-76
2024/02/01 06:21:06;;;;;;;56.63;26.85;;;6.10;99.90;;;;;;6206972;23;20011;-73
2024/02/01 06:23:31;;;;;;;54.17;26.75;;;6.00;99.90;;;;;;6206057;23;20437;-78
2024/02/01 06:25:57;;;;;;;45.87;26.80;;;6.10;99.90;;;;;;6206822;23;20004;-78
2024/02/01 06:28:23;;;;;;;55.97;26.93;;;6.10;99.90;;;;;;6206232;23;20035;-77
2024/02/01 06:30:49;;;;;;;58.10;29.52;;;6.10;99.90;;;;;;6207071;23;20024;-77
2024/02/01 06:33:14;;;;;;;53.47;27.47;;;6.10;99.90;;;;;;6206391;23;20346;-77
2024/02/01 06:35:42;;;;;;;50.23;28.23;;;6.00;99.90;;;;;;6206399;23;20079;-78
2024/02/01 06:38:22;;;;;;;51.45;27.52;;;6.10;99.90;;;;;;6206928;23;20075;-78
2024/02/01 06:41:06;;;;;;;52.05;27.17;;;6.00;99.90;;;;;;6206587;23;20004;-79
2024/02/01 06:43:51;;;;;;;50.78;26.58;;;6.10;99.90;;;;;;6206462;23;19996;-79
2024/02/01 06:46:38;;;;;;;47.00;27.00;;;6.10;99.90;;;;;;6206332;23;20441;-76
2024/02/01 06:49:18;;;;;;;56.53;28.60;;;6.00;99.90;;;;;;6207725;23;20004;-74
2024/02/01 06:51:43;;;;;;;51.75;27.80;;;5.90;99.90;;;;;;6207116;23;20016;-76
2024/02/01 06:54:28;;;;;;;58.83;29.67;;;5.90;99.90;;;;;;6206602;23;20092;-74
2024/02/01 06:57:02;;;;;;;55.00;28.70;;;5.80;99.90;;;;;;6206649;23;20449;-74
2024/02/01 06:59:33;;;;;;;53.75;27.92;;;5.60;99.90;;;;;;6206505;23;20012;-74
2024/02/01 07:04:53;;;;;;;52.30;29.35;;;5.40;99.90;;;;;;6150605;23;20383;-74
2024/02/01 07:07:26;;;;;;;52.83;28.85;;;5.30;99.90;;;;;;6206335;23;20001;-72
2024/02/01 07:09:58;;;;;;;57.85;29.08;;;5.40;99.90;;;;;;6209084;23;20059;-72
2024/02/01 07:12:42;;;;;;;64.97;29.25;;;5.30;99.90;;;;;;6208468;23;20732;-72
2024/02/01 07:15:19;;;;;;;59.72;28.17;;;5.30;99.90;;;;;;6209720;23;20340;-73
2024/02/01 07:17:46;;;;;;;55.58;29.55;;;5.30;99.90;;;;;;6209588;23;20005;-72
2024/02/01 07:20:23;;;;;;;;;;;5.20;99.90;;;;;;6209583;23;20441;-74
2024/02/01 07:23:16;;;;;;;62.08;29.15;;;5.30;99.90;;;;;;6208209;23;19955;-76
2024/02/01 07:25:48;;;;;;;72.80;34.97;;;5.30;99.90;;;;;;6208093;23;20000;-72
2024/02/01 07:58:37;;;;;;;68.88;32.47;;;5.90;99.90;;;;;;6206753;23;20014;-77
2024/02/01 08:01:13;;;;;;;61.40;29.45;;;5.90;99.90;;;;;;6208323;23;20457;-76
2024/02/01 08:03:55;;;;;;;69.28;32.67;;;5.90;99.90;;;;;;6208241;23;20033;-74
2024/02/01 08:09:11;;;;;;;61.20;30.90;;;6.00;99.90;;;;;;6208258;23;20043;-76
2024/02/01 08:11:43;;;;;;;72.22;31.42;;;6.10;99.90;;;;;;6208495;23;20396;-78
2024/02/01 08:14:15;;;;;;;67.38;32.42;;;;;;;;;;6207917;23;20009;-74
2024/02/01 08:16:43;;;;;;;83.03;32.50;;;;;;;;;;6208260;23;20080;-75
2024/02/01 08:19:09;;;;;;;88.95;33.17;;;;;;;;;;6206842;23;20369;-75
2024/02/01 08:21:41;;;;;;;;;;;;;;;;;;6180582;23;20024;-73
2024/02/01 08:24:09;;;;;;;95.40;41.63;;;6.20;99.90;;;;;;6208802;23;20355;-73
2024/02/01 08:26:39;;;;;;;84.32;40.90;;;;;;;;;;6209114;23;20008;-74
2024/02/01 08:29:09;;;;;;;82.55;38.58;;;;;;;;;;6207408;23;20039;-74
2024/02/01 08:31:36;;;;;;;79.07;36.47;;;;;;;;;;6208532;23;20407;-73
2024/02/01 08:34:03;;;;;;;94.35;35.13;;;;;;;;;;6207536;23;20001;-73
2024/02/01 08:36:29;;;;;;;64.70;35.35;;;;;;;;;;6207874;23;20001;-75
2024/02/01 08:38:55;;;;;;;68.60;33.90;;;6.40;99.90;;;;;;6207599;23;20012;-73
2024/02/01 08:41:21;;;;;;;77.40;35.13;;;6.70;99.90;;;;;;6207520;23;20365;-74
2024/02/01 08:43:47;;;;;;;72.05;36.42;;;6.70;99.90;;;;;;6207443;23;20004;-73
2024/02/01 08:46:12;;;;;;;67.47;33.55;;;6.70;99.90;;;;;;6208978;23;20043;-73
2024/02/01 08:48:39;;;;;;;70.47;34.13;;;6.70;99.90;;;;;;6208989;23;20449;-73
2024/02/01 08:51:04;;;;;;;;;;;6.70;99.90;;;;;;6208675;23;20013;-73
2024/02/01 08:53:30;;;;;;;77.78;33.13;;;6.70;99.90;;;;;;6209318;23;19931;-72
2024/02/01 08:55:56;;;;;;;79.20;38.87;;;6.70;99.90;;;;;;6208909;23;20087;-72
2024/02/01 08:58:21;;;;;;;72.97;38.83;;;6.70;99.90;;;;;;6209220;23;20433;-73
2024/02/01 09:00:47;;;;;;;77.20;38.80;;;6.70;99.90;;;;;;6210965;23;20009;-74
2024/02/01 09:03:16;;;;;;;79.47;40.05;;;6.70;99.90;;;;;;6209451;23;20012;-73
2024/02/01 09:05:47;;;;;;;76.53;36.70;;;6.70;99.90;;;;;;6209708;23;20008;-73
2024/02/01 09:08:19;;;;;;;72.15;34.05;;;6.70;99.90;;;;;;6208510;23;20008;-73
2024/02/01 09:10:57;;;;;;;72.97;32.25;;;6.60;99.90;;;;;;6206594;23;20048;-74
2024/02/01 09:13:24;;;;;;;59.42;33.70;;;6.60;99.90;;;;;;6208593;23;20005;-73
2024/02/01 09:15:53;;;;;;;62.83;33.30;;;6.60;99.90;;;;;;6208211;23;20518;-72
2024/02/01 09:18:19;;;;;;;60.40;33.80;;;6.60;99.90;;;;;;6208103;23;20000;-73
2024/02/01 09:20:45;;;;;;;52.57;30.73;;;6.60;99.90;;;;;;6208225;23;20013;-73
2024/02/01 09:23:14;;;;;;;67.00;35.58;;;6.70;99.90;;;;;;6208616;23;20008;-73
2024/02/01 09:25:41;;;;;;;64.30;35.90;;;6.70;99.90;;;;;;6208301;23;20008;-72
2024/02/01 09:28:14;;;;;;;81.85;36.42;;;6.70;99.90;;;;;;6207948;23;20011;-72
2024/02/01 09:30:45;;;;;;;63.55;35.08;;;6.80;99.90;;;;;;6181530;23;20025;-72
2024/02/01 09:33:19;;;;;;;70.00;34.70;;;6.80;99.90;;;;;;6182068;23;20019;-74
2024/02/01 09:35:45;;;;;;;68.15;35.53;;;6.90;99.90;;;;;;6181618;23;20527;-73
2024/02/01 09:38:11;;;;;;;;;;;7.00;99.90;;;;;;6209425;23;20009;-74
2024/02/01 09:40:43;;;;;;;67.22;33.60;;;7.00;99.90;;;;;;6208093;23;19910;-76
2024/02/01 09:43:23;;;;;;;66.63;35.90;;;7.00;99.90;;;;;;6208543;23;20508;-75
2024/02/01 09:45:55;;;;;;;65.97;34.80;;;7.00;99.90;;;;;;6208867;23;20322;-77
2024/02/01 09:48:21;;;;;;;76.45;37.17;;;7.10;99.90;;;;;;6208346;23;20009;-77
2024/02/01 09:50:51;;;;;;;66.63;34.85;;;7.00;99.90;;;;;;6206678;23;20020;-78
2024/02/01 09:53:21;;;;;;;69.88;36.85;;;7.10;99.90;;;;;;6207012;23;20001;-77
2024/02/01 09:55:48;;;;;;;73.93;37.70;;;7.10;99.90;;;;;;6207902;23;20008;-76
2024/02/01 09:58:14;;;;;;;66.53;37.05;;;;;;;;;;6181129;23;20392;-77
2024/02/01 10:00:39;;;;;;;75.63;36.15;;;7.20;99.90;;;;;;6176768;23;20009;-77
2024/02/01 10:03:05;;;;;;;71.67;36.47;;;;;;;;;;6178267;23;20008;-77
2024/02/01 10:05:32;;;;;;;68.35;35.45;;;;;;;;;;6177660;23;20001;-77
2024/02/01 10:07:59;;;;;;;66.20;35.90;;;7.40;99.90;;;;;;6177928;23;20005;-76
2024/02/01 10:10:25;;;;;;;;;;;7.80;99.90;;;;;;6180083;23;20103;-76
2024/02/01 10:12:58;;;;;;;68.82;36.67;;;7.80;99.90;;;;;;6176141;23;19904;-76
2024/02/01 10:15:30;;;;;;;65.22;36.03;;;7.90;99.90;;;;;;6178277;23;20462;-81
2024/02/01 10:17:58;;;;;;;64.25;38.08;;;8.00;99.90;;;;;;6177681;23;20011;-75
2024/02/01 10:20:45;;;;;;;82.40;38.95;;;8.00;99.90;;;;;;6176495;23;20016;-75
2024/02/01 10:23:13;;;;;;;71.93;38.28;;;8.10;99.90;;;;;;6177968;23;20045;-75
2024/02/01 10:25:49;;;;;;;68.30;36.50;;;8.20;99.90;;;;;;6178278;23;20001;-76
2024/02/01 10:28:20;;;;;;;73.70;37.45;;;8.20;99.90;;;;;;6178300;23;20009;-74
2024/02/01 10:30:48;;;;;;;78.80;36.40;;;8.40;99.90;;;;;;6176038;23;20100;-76
2024/02/01 10:33:17;;;;;;;70.25;37.33;;;8.40;99.90;;;;;;6177084;23;20430;-76
2024/02/01 10:35:52;;;;;;;67.68;35.10;;;8.40;99.90;;;;;;6178988;23;20035;-76
2024/02/01 10:38:23;;;;;;;72.68;36.95;;;8.50;99.90;;;;;;6179168;23;20068;-75
2024/02/01 10:41:11;;;;;;;70.43;37.10;;;8.60;99.90;;;;;;6176995;23;20001;-75
2024/02/01 10:43:41;;;;;;;;;;;8.70;99.90;;;;;;6179065;23;19997;-74
2024/02/01 10:46:12;;;;;;;71.28;36.70;;;8.70;99.90;;;;;;6178294;23;20317;-74
2024/02/01 10:48:57;;;;;;;73.70;37.03;;;8.70;99.90;;;;;;6180038;23;20021;-75
2024/02/01 10:51:24;;;;;;;82.55;37.80;;;8.70;99.90;;;;;;6178779;23;20013;-75
2024/02/01 10:53:51;;;;;;;88.32;36.63;;;8.70;99.90;;;;;;6178952;23;20681;-76
2024/02/01 10:56:17;;;;;;;;;;;8.70;99.90;;;;;;6178986;23;20429;-78
2024/02/01 10:58:48;;;;;;;67.97;35.72;;;8.70;99.90;;;;;;6182897;23;19911;-76
2024/02/01 11:01:16;;;;;;;63.40;34.63;;;8.60;99.90;;;;;;6208388;23;20457;-74
2024/02/01 11:03:46;;;;;;;68.57;38.13;;;8.60;99.90;;;;;;6208664;23;20028;-75
2024/02/01 11:06:12;;;;;;;67.75;34.47;;;8.60;99.90;;;;;;6208619;23;20079;-75
2024/02/01 11:08:40;;;;;;;73.43;38.93;;;8.60;99.90;;;;;;6207205;23;20119;-74
2024/02/01 11:11:16;;;;;;;74.82;42.10;;;8.50;99.90;;;;;;6181567;23;20040;-77
2024/02/01 11:13:43;;;;;;;77.82;40.42;;;8.50;99.90;;;;;;6209588;23;20116;-75
2024/02/01 11:16:08;;;;;;;77.47;39.97;;;8.40;99.90;;;;;;6209770;23;20016;-76
2024/02/01 11:18:37;;;;;;;77.80;38.67;;;8.40;99.90;;;;;;6208663;23;20189;-75
2024/02/01 11:21:06;;;;;;;74.97;42.60;;;8.40;99.90;;;;;;6207840;23;20028;-75
2024/02/01 11:23:38;;;;;;;73.20;39.22;;;8.40;99.90;;;;;;6207882;23;19997;-73
2024/02/01 11:26:15;;;;;;;74.20;37.88;;;8.40;99.90;;;;;;6207507;23;20009;-73
2024/02/01 11:28:46;;;;;;;67.45;36.28;;;8.40;99.90;;;;;;6208325;23;20005;-73
2024/02/01 11:31:15;;;;;;;65.30;34.53;;;8.30;99.90;;;;;;6208263;23;20341;-73
2024/02/01 11:33:43;;;;;;;70.95;35.67;;;8.30;99.90;;;;;;6208213;23;20023;-73
2024/02/01 11:36:08;;;;;;;73.22;37.03;;;8.30;99.90;;;;;;6180794;23;20449;-74
2024/02/01 11:38:34;;;;;;;66.47;35.27;;;8.30;99.90;;;;;;6208117;23;20054;-73
2024/02/01 11:41:00;;;;;;;66.33;35.47;;;8.30;99.90;;;;;;6207620;23;20573;-74
2024/02/01 11:43:25;;;;;;;67.60;34.83;;;8.40;99.90;;;;;;6209281;23;20031;-74
2024/02/01 11:45:55;;;;;;;71.47;36.03;;;8.40;99.90;;;;;;6208543;23;20004;-74
2024/02/01 11:48:22;;;;;;;59.92;35.33;;;8.40;99.90;;;;;;6208415;23;20005;-74
2024/02/01 11:50:53;;;;;;;77.03;37.17;;;8.50;99.90;;;;;;6208347;23;20012;-74
2024/02/01 11:53:20;;;;;;;74.88;36.42;;;8.60;99.90;;;;;;6207813;23;20008;-75
2024/02/01 11:55:45;;;;;;;68.03;35.97;;;8.70;99.90;;;;;;6208164;23;20416;-75
2024/02/01 11:58:14;;;;;;;74.05;37.95;;;8.70;99.90;;;;;;6208615;23;20070;-74
2024/02/01 12:00:40;;;;;;;75.00;37.65;;;8.70;99.90;;;;;;6208798;23;20513;-75
2024/02/01 12:03:05;;;;;;;72.57;41.17;;;8.70;99.90;;;;;;6207639;23;20043;-74
2024/02/01 12:05:32;;;;;;;80.80;44.55;;;8.80;99.90;;;;;;6208614;23;20005;-75
2024/02/01 12:08:03;;;;;;;83.43;45.53;;;;;;;;;;6208001;23;20036;-75
2024/02/01 12:10:31;;;;;;;89.72;48.05;;;8.90;99.90;;;;;;6207817;23;20012;-75
2024/02/01 12:12:57;;;;;;;81.18;41.70;;;9.00;99.90;;;;;;6208254;23;20449;-75
2024/02/01 12:15:24;;;;;;;;;;;9.00;99.90;;;;;;6209860;23;20084;-74
2024/02/01 12:17:55;;;;;;;81.33;40.83;;;9.00;99.90;;;;;;6209626;23;19903;-74
2024/02/01 12:20:28;;;;;;;80.60;42.78;;;9.00;99.90;;;;;;6208853;23;20236;-75
2024/02/01 12:22:59;;;;;;;80.30;40.53;;;9.00;99.90;;;;;;6207145;23;20011;-74
2024/02/01 12:25:25;;;;;;;78.93;39.45;;;9.00;99.90;;;;;;6208214;23;20011;-74
2024/02/01 12:27:50;;;;;;;72.43;40.13;;;9.00;99.90;;;;;;6206980;23;20782;-74
2024/02/01 12:30:21;;;;;;;80.00;37.67;;;9.10;99.90;;;;;;6206484;23;20004;-75
2024/02/01 12:32:46;;;;;;;70.40;38.22;;;9.20;99.90;;;;;;6207154;23;20054;-74
2024/02/01 12:35:19;;;;;;;67.50;37.83;;;9.30;99.90;;;;;;6208540;23;19997;-74
2024/02/01 12:37:45;;;;;;;80.13;38.67;;;9.30;99.90;;;;;;6207369;23;20047;-75
2024/02/01 12:40:13;;;;;;;71.45;36.80;;;9.30;99.90;;;;;;6207836;23;20537;-75
2024/02/01 12:42:39;;;;;;;64.80;37.35;;;;;;;;;;6207785;23;20072;-76
2024/02/01 12:45:07;;;;;;;;;;;;;;;;;;6207613;23;20354;-73
2024/02/01 12:47:37;;;;;;;96.15;36.20;;;;;;;;;;6205705;23;19904;-74
2024/02/01 12:50:04;;;;;;;60.83;35.55;;;;;;;;;;6203438;23;20017;-74
2024/02/01 12:52:30;;;;;;;67.20;36.22;;;9.40;99.90;;;;;;6205729;23;20083;-74
2024/02/01 12:55:00;;;;;;;77.47;37.63;;;;;;;;;;6180732;23;20056;-74
2024/02/01 12:57:26;;;;;;;68.95;36.67;;;;;;;;;;6207938;23;20007;-74
2024/02/01 12:59:53;;;;;;;70.80;38.88;;;9.60;99.90;;;;;;6207696;23;20012;-74
2024/02/01 13:02:19;;;;;;;72.65;36.97;;;9.60;99.90;;;;;;6208443;23;20004;-74
2024/02/01 13:04:45;;;;;;;78.82;37.72;;;9.60;99.90;;;;;;6208856;23;20051;-74
2024/02/01 13:07:11;;;;;;;76.32;37.92;;;9.50;99.90;;;;;;6208831;23;20092;-74
2024/02/01 13:09:39;;;;;;;75.32;37.97;;;9.50;99.90;;;;;;6208002;23;20055;-74
2024/02/01 13:12:18;;;;;;;81.57;37.67;;;9.40;99.90;;;;;;6208191;23;20038;-74
2024/02/01 13:14:45;;;;;;;72.63;38.78;;;9.40;99.90;;;;;;6207209;23;20445;-74
2024/02/01 13:17:11;;;;;;;;;;;9.30;99.90;;;;;;6208684;23;20017;-74
2024/02/01 13:19:40;;;;;;;77.50;38.33;;;9.30;99.90;;;;;;6207744;23;20393;-74
2024/02/01 13:22:07;;;;;;;66.63;36.58;;;9.30;99.90;;;;;;6207578;23;20391;-74
2024/02/01 13:24:32;;;;;;;66.78;37.22;;;9.30;99.90;;;;;;6207909;23;20009;-74
2024/02/01 13:26:58;;;;;;;63.93;36.63;;;9.40;99.90;;;;;;6208186;23;20004;-74